METAR Data
IDs: Format: Raw Decoded Include TAF

Data at: 2000 UTC 21 Sep 2021

KTXK 211953Z 31008KT 10SM BKN012 28/25 A3004 RMK AO2 LTG DSNT NE SLP166 T02780250 $
KTXK 211930Z 31008KT 10SM BKN012 28/25 A3004 RMK AO2 LTG DSNT N AND S T02780250 $
KTXK 211907Z 30005KT 10SM SCT010 26/24 A3004 RMK AO2 LTG DSNT N AND NE AND S T02610239 $
KTXK 211853Z 24005KT 10SM BKN060 26/23 A3004 RMK AO2 LTG DSNT ALQDS RAEMM TSE24 SLP168 P0015 T02610228 $
KTXK 211827Z 26/23 A3005 RMK AO2 LTG DSNT N RAEMM TSE24 P0015 T02610233 $
KTXK 211822Z 00000KT 9SM -TSRA BKN035 BKN075 BKN110 26/23 A3006 RMK AO2 LTG DSNT N P0015 T02610233 $
KTXK 211816Z 27006KT 4SM -TSRA BR SCT032 BKN080 OVC100 26/23 A3007 RMK AO2 LTG DSNT N AND NW P0014 T02560233 $
KTXK 211802Z 27010KT 1 3/4SM +TSRA BR SCT029 BKN038 OVC100 27/24 A3007 RMK AO2 LTG DSNT SW-N P0008 T02670244
KTXK 211753Z 29008KT 3SM -TSRA FEW034 SCT060 OVC095 28/24 A3007 RMK AO2 LTG DSNT SW-NW RAB33 TSB46 SLP176 P0003 60003 T02830239 10322 20244 51006
KTXK 211734Z 30004KT 10SM VCTS -RA FEW034 SCT060 BKN090 31/23 A3006 RMK AO2 LTG DSNT SW AND W RAB33 P0000 T03060228
KTXK 211653Z 29008KT 10SM SCT030 29/23 A3006 RMK AO2 LTG DSNT W-N SLP172 T02890228 $
KTXK 211638Z 33004KT 10SM BKN030 29/23 A3006 RMK AO2 LTG DSNT N AND NW T02890228 $
KTXK 211553Z 330/04KT 10SM CLR 29/23 A3005
KTXK 211453Z 220/04KT 10SM CLR 28/23 A3004
KTXK 211353Z 21004KT 9SM CLR 27/23 A3001 RMK AO2 SLP158 T02670233
KTXK 211253Z 22003KT 5SM BR CLR 25/23 A3000 RMK AO2 SLP153 T02500228
KTXK 211153Z 00000KT 7SM CLR 24/22 A2998 RMK AO2 SLP146 T02440222 10272 20244 53021
KTXK 211053Z 25005KT 8SM CLR 25/23 A2995 RMK AO2 SLP136 T02500228
KTXK 210953Z AUTO 20008KT 9SM CLR 25/22 A2991 RMK AO2 SLP124 T02500222
KTXK 210853Z AUTO 20007KT 10SM CLR 26/22 A2992 RMK AO2 SLP124 T02560222 51003
KTXK 210753Z AUTO 19007KT 10SM CLR 26/22 A2992 RMK AO2 SLP123 T02610222
KTXK 210653Z AUTO 21006KT 10SM CLR 26/22 A2991 RMK AO2 SLP122 T02610222
KTXK 210553Z AUTO 18007KT 10SM CLR 27/22 A2991 RMK AO2 SLP121 T02720222 10311 20272 403440222 50004
KTXK 210453Z AUTO 17008KT 10SM CLR 27/22 A2991 RMK AO2 SLP122 T02720222
KTXK 210353Z AUTO 16008KT 10SM CLR 28/22 A2991 RMK AO2 SLP121 T02780222
KTXK 210253Z AUTO 15010KT 10SM CLR 29/22 A2989 RMK AO2 SLP117 T02890222 53015
KTXK 210153Z 16008KT 10SM CLR 29/22 A2988 RMK AO2 SLP112 T02940222
KTXK 210053Z 16006KT 10SM CLR 30/23 A2986 RMK AO2 SLP106 T03000228
KTXK 202353Z 15005KT 10SM CLR 31/23 A2985 RMK AO2 SLP102 T03110228 10344 20311 55001
KTXK 202253Z 16008KT 10SM CLR 33/22 A2985 RMK AO2 SLP102 T03280222
KTXK 202153Z 13006KT 10SM FEW060 33/22 A2984 RMK AO2 SLP099 T03330222
KTXK 202053Z 20008KT 10SM SCT055 34/21 A2985 RMK AO2 SLP103 T03390206 56019